°C

Conditions at local time : on    Forecast:

Nearby METAR Reports





EGKA - Shoreham-By-Sea, United Kingdom
Distance from station: ENE 4mi, 6km
Updated: Thu, 28-Oct-2021 8:20am BST
Mostly Cloudy
Mostly Cloudy
 Wind from SSW
Wind: SSW 15 mph , 24 km/h
Temperature: 14°C
Dew Point: 11°C
Humidity: 82%
Barometer: 1012 hPa
Clouds: Mostly Cloudy
Visibility: 6 miles , 10 km
Cloud details: Few Clouds 518 m
Mostly Cloudy 732 m
2021/10/28 07:20 EGKA 280720Z 20013KT 9999 FEW017 BKN024 14/11 Q1012
EGKK - London/Gatwick A, United Kingdom
Distance from station: NNE 24mi, 39km
Updated: Thu, 28-Oct-2021 8:20am BST
Partly Cloudy
Partly Cloudy
 Wind from S
Wind: S 7 mph , 11 km/h
Temperature: 13°C
Dew Point: 11°C
Humidity: 88%
Barometer: 1012 hPa
Clouds: Partly Cloudy
Visibility: 6 miles , 10 km
Cloud details: Partly Cloudy 488 m
2021/10/28 07:20 EGKK 280720Z 19006KT 170V230 9999 SCT016 13/11 Q1012
 
EGLF - Farnborough, United Kingdom
Distance from station: NNW 37mi, 59km
Updated: Thu, 28-Oct-2021 8:20am BST
Few Clouds
Few Clouds
 Wind from SSE
Wind: SSE 7 mph , 11 km/h
Temperature: 12°C
Dew Point: 10°C
Humidity: 88%
Barometer: 1011 hPa
Clouds: Few Clouds
Visibility: 6 miles , 10 km
Cloud details: Few Clouds 732 m
2021/10/28 07:20 EGLF 280720Z 16006KT 9999 FEW024 12/10 Q1011
EGVO - Odiham Raf, United Kingdom
Distance from station: NW 38mi, 61km
Updated: Thu, 28-Oct-2021 7:50am BST
Mostly Cloudy
Mostly Cloudy
 Wind from SSE
Wind: SSE 10 mph , 17 km/h
Temperature: 13°C
Dew Point: 11°C
Humidity: 88%
Barometer: 1010 hPa
Clouds: Mostly Cloudy
Visibility: 6 miles , 10 km
Cloud details: Mostly Cloudy 610 m
2021/10/28 06:50 EGVO 280650Z 16009KT 9999 BKN020 13/11 Q1010 RMK WHT